Time;durP1;ratioP1;P1;durP2;ratioP2;P2;SDS_P1;SDS_P2;PMS_P1;PMS_P2;Temp;Humidity;BMP_temperature;BMP_pressure;BME280_temperature;BME280_humidity;BME280_pressure;Samples;Min_cycle;Max_cycle;Signal;HPM_P1;HPM_P2
2023/04/01 00:01:04;;;;;;;0.87;0.87;;;;;7.20;94644.00;;;;5055662;28;20282;-67
2023/04/01 00:03:32;;;;;;;0.60;0.60;;;;;7.20;94636.00;;;;5055943;28;20193;-67
2023/04/01 00:06:01;;;;;;;0.60;0.60;;;;;7.40;94643.00;;;;5056093;28;20275;-67
2023/04/01 00:08:30;;;;;;;0.50;0.50;;;;;7.40;94634.00;;;;5055528;28;20261;-66
2023/04/01 00:10:59;;;;;;;0.60;0.60;;;;;7.40;94635.00;;;;5055357;28;20218;-66
2023/04/01 00:13:27;;;;;;;0.50;0.50;;;;;7.20;94649.00;;;;5055493;28;20655;-66
2023/04/01 00:15:55;;;;;;;1.03;1.03;;;;;7.10;94644.00;;;;5055434;28;20207;-66
2023/04/01 00:18:23;;;;;;;0.60;0.60;;;;;7.30;94648.00;;;;5055412;28;20674;-67
2023/04/01 00:20:52;;;;;;;0.60;0.60;;;;;7.30;94644.00;;;;5055365;28;20232;-67
2023/04/01 00:23:21;;;;;;;0.77;0.77;;;;;7.30;94648.00;;;;5055043;28;20197;-66
2023/04/01 00:25:49;;;;;;;0.50;0.50;;;;;7.30;94644.00;;;;5055400;28;20265;-66
2023/04/01 00:28:19;;;;;;;0.60;0.60;;;;;7.20;94640.00;;;;5055238;28;20197;-66
2023/04/01 00:30:47;;;;;;;3.00;2.07;;;;;7.30;94643.00;;;;5055889;28;20204;-66
2023/04/01 00:33:16;;;;;;;0.60;0.60;;;;;7.10;94640.00;;;;5055101;28;20222;-67
2023/04/01 00:35:44;;;;;;;0.50;0.50;;;;;7.20;94649.00;;;;5055192;28;20279;-66
2023/04/01 00:38:12;;;;;;;0.70;0.70;;;;;7.30;94640.00;;;;5037828;28;20203;-66
2023/04/01 00:40:41;;;;;;;0.60;0.60;;;;;7.40;94653.00;;;;5054803;28;20719;-66
2023/04/01 00:43:13;;;;;;;0.60;0.60;;;;;7.20;94648.00;;;;5055300;28;20274;-67
2023/04/01 00:45:44;;;;;;;0.60;0.60;;;;;7.10;94644.00;;;;5037080;28;20258;-66
2023/04/01 00:48:15;;;;;;;0.60;0.60;;;;;6.90;94637.00;;;;5055044;28;20586;-67
2023/04/01 00:50:49;;;;;;;0.50;0.50;;;;;7.10;94643.00;;;;5054745;28;20266;-67
2023/04/01 00:53:18;;;;;;;0.60;0.60;;;;;7.10;94635.00;;;;5036984;28;20577;-67
2023/04/01 00:55:54;;;;;;;0.60;0.60;;;;;7.10;94633.00;;;;5054691;28;20200;-67
2023/04/01 00:58:27;;;;;;;0.73;0.73;;;;;7.20;94640.00;;;;5054922;28;20537;-66
2023/04/01 01:00:57;;;;;;;0.50;0.50;;;;;7.00;94650.00;;;;5054723;28;20224;-67
2023/04/01 01:03:25;;;;;;;0.60;0.60;;;;;7.00;94645.00;;;;5054567;28;20200;-66
2023/04/01 01:06:10;;;;;;;0.50;0.50;;;;;7.20;94647.00;;;;5054724;28;20191;-67
2023/04/01 01:09:07;;;;;;;2.20;0.93;;;;;7.20;94643.00;;;;5054429;28;20219;-67
2023/04/01 01:11:40;;;;;;;0.57;0.57;;;;;7.20;94641.00;;;;5055192;28;20223;-66
2023/04/01 01:14:20;;;;;;;7.10;0.93;;;;;7.20;94641.00;;;;5036495;28;20208;-66
2023/04/01 01:16:56;;;;;;;0.60;0.60;;;;;7.20;94645.00;;;;5054853;28;20180;-67
2023/04/01 01:19:47;;;;;;;0.50;0.50;;;;;6.90;94645.00;;;;5054783;28;20187;-67
2023/04/01 01:22:41;;;;;;;0.53;0.53;;;;;7.00;94647.00;;;;5054436;28;20612;-67
2023/04/01 01:25:21;;;;;;;0.60;0.60;;;;;6.90;94654.00;;;;5054452;28;20187;-67
2023/04/01 01:27:58;;;;;;;0.50;0.50;;;;;6.90;94646.00;;;;5054101;28;20233;-67
2023/04/01 01:30:39;;;;;;;0.60;0.60;;;;;6.90;94645.00;;;;5054013;28;20222;-66
2023/04/01 01:33:30;;;;;;;0.50;0.50;;;;;6.80;94650.00;;;;5054054;28;20271;-67
2023/04/01 01:36:00;;;;;;;0.50;0.50;;;;;6.70;94649.00;;;;5054095;28;20208;-67
2023/04/01 01:38:31;;;;;;;0.60;0.60;;;;;6.70;94649.00;;;;5054402;28;20196;-67
2023/04/01 01:41:00;;;;;;;0.50;0.50;;;;;6.70;94639.00;;;;5035870;28;20234;-68
2023/04/01 01:43:31;;;;;;;0.50;0.50;;;;;6.60;94634.00;;;;5054197;28;20249;-67
2023/04/01 01:46:01;;;;;;;0.60;0.60;;;;;6.70;94636.00;;;;5053834;28;20180;-67
2023/04/01 01:48:30;;;;;;;0.93;0.93;;;;;6.80;94633.00;;;;5035893;28;20593;-67
2023/04/01 01:50:59;;;;;;;0.50;0.50;;;;;7.00;94645.00;;;;5054080;28;20282;-65
2023/04/01 01:53:27;;;;;;;0.50;0.50;;;;;6.90;94629.00;;;;5053600;28;20208;-65
2023/04/01 01:55:54;;;;;;;0.60;0.60;;;;;6.80;94638.00;;;;5036572;28;20765;-66
2023/04/01 01:58:25;;;;;;;0.60;0.60;;;;;6.90;94635.00;;;;5053514;28;20203;-65
2023/04/01 02:00:56;;;;;;;0.60;0.60;;;;;6.90;94631.00;;;;5053740;28;20687;-65
2023/04/01 02:03:26;;;;;;;0.60;0.60;;;;;6.80;94628.00;;;;5053801;28;20607;-65
2023/04/01 02:05:56;;;;;;;0.53;0.53;;;;;6.80;94632.00;;;;5053631;28;20646;-66
2023/04/01 02:08:30;;;;;;;0.57;0.57;;;;;6.90;94641.00;;;;5053432;28;20199;-66
2023/04/01 02:11:00;;;;;;;0.80;0.80;;;;;7.00;94630.00;;;;5035455;28;20223;-65
2023/04/01 02:13:32;;;;;;;0.57;0.57;;;;;6.80;94641.00;;;;5053870;28;20233;-66
2023/04/01 02:16:04;;;;;;;0.70;0.70;;;;;7.10;94640.00;;;;5053587;28;20176;-66
2023/04/01 02:18:34;;;;;;;0.70;0.70;;;;;7.00;94637.00;;;;5053579;28;20263;-66
2023/04/01 02:21:04;;;;;;;0.70;0.70;;;;;6.80;94638.00;;;;5053372;28;20230;-67
2023/04/01 02:23:34;;;;;;;0.60;0.60;;;;;6.70;94625.00;;;;5053180;28;20225;-66
2023/04/01 02:26:01;;;;;;;0.47;0.47;;;;;6.80;94619.00;;;;5053157;28;20245;-65
2023/04/01 02:28:30;;;;;;;0.60;0.60;;;;;6.90;94627.00;;;;5053138;28;20196;-65
2023/04/01 02:31:02;;;;;;;0.50;0.50;;;;;7.00;94627.00;;;;5035194;28;20717;-65
2023/04/01 02:33:31;;;;;;;0.50;0.50;;;;;6.80;94638.00;;;;5053177;28;20182;-66
2023/04/01 02:35:59;;;;;;;0.57;0.57;;;;;6.90;94637.00;;;;5053306;28;20197;-66
2023/04/01 02:38:26;;;;;;;1.27;0.97;;;;;6.90;94631.00;;;;5053037;28;20192;-66
2023/04/01 02:41:01;;;;;;;0.50;0.50;;;;;6.90;94631.00;;;;5052847;28;20223;-66
2023/04/01 02:43:29;;;;;;;0.50;0.50;;;;;7.10;94637.00;;;;5053045;28;20179;-67
2023/04/01 02:45:57;;;;;;;0.50;0.50;;;;;7.00;94623.00;;;;5056030;28;20679;-67
2023/04/01 02:48:24;;;;;;;0.60;0.60;;;;;7.00;94637.00;;;;5057084;28;20210;-67
2023/04/01 02:50:51;;;;;;;0.70;0.70;;;;;6.90;94630.00;;;;5056947;28;20211;-67
2023/04/01 02:53:19;;;;;;;0.80;0.80;;;;;6.90;94635.00;;;;5057000;28;20207;-66
2023/04/01 02:55:49;;;;;;;0.50;0.50;;;;;6.90;94637.00;;;;5057707;28;20498;-68
2023/04/01 02:58:18;;;;;;;0.50;0.50;;;;;6.80;94642.00;;;;5056895;28;20195;-67
2023/04/01 03:00:46;;;;;;;0.63;0.63;;;;;6.80;94629.00;;;;5038921;28;20227;-66
2023/04/01 03:03:13;;;;;;;0.60;0.60;;;;;6.60;94614.00;;;;5038871;28;20304;-66
2023/04/01 03:05:41;;;;;;;1.00;1.00;;;;;6.60;94624.00;;;;5057580;28;20203;-66
2023/04/01 03:08:08;;;;;;;0.53;0.53;;;;;6.60;94635.00;;;;5056993;28;20681;-67
2023/04/01 03:10:35;;;;;;;0.60;0.60;;;;;6.70;94635.00;;;;5056494;28;20699;-66
2023/04/01 03:13:03;;;;;;;0.60;0.60;;;;;6.50;94635.00;;;;5056687;28;20192;-68
2023/04/01 03:15:31;;;;;;;0.60;0.60;;;;;6.50;94642.00;;;;5057147;28;20206;-66
2023/04/01 03:17:59;;;;;;;0.70;0.70;;;;;6.70;94626.00;;;;5056556;28;20199;-66
2023/04/01 03:20:27;;;;;;;0.57;0.57;;;;;6.50;94639.00;;;;5056455;28;20273;-66
2023/04/01 03:22:54;;;;;;;0.63;0.63;;;;;6.50;94645.00;;;;5056364;28;20219;-66
2023/04/01 03:25:22;;;;;;;0.60;0.60;;;;;6.50;94634.00;;;;5056348;28;20196;-66
2023/04/01 03:27:49;;;;;;;0.60;0.60;;;;;6.60;94632.00;;;;5056917;28;20199;-66
2023/04/01 03:30:16;;;;;;;0.80;0.80;;;;;6.50;94637.00;;;;5056479;28;20212;-66
2023/04/01 03:32:45;;;;;;;0.60;0.60;;;;;6.40;94636.00;;;;5056215;28;20196;-66
2023/04/01 03:35:13;;;;;;;0.60;0.60;;;;;6.40;94640.00;;;;5056302;28;20192;-67
2023/04/01 03:37:40;;;;;;;0.70;0.70;;;;;6.30;94635.00;;;;5056787;28;20195;-66
2023/04/01 03:40:09;;;;;;;0.60;0.60;;;;;6.40;94635.00;;;;5038133;28;20216;-66
2023/04/01 03:42:36;;;;;;;0.50;0.50;;;;;6.50;94631.00;;;;5055992;28;20223;-66
2023/04/01 03:45:04;;;;;;;0.53;0.53;;;;;6.40;94626.00;;;;5056040;28;20219;-66
2023/04/01 03:47:32;;;;;;;0.50;0.50;;;;;6.40;94632.00;;;;5038085;28;20651;-67
2023/04/01 03:50:00;;;;;;;0.60;0.60;;;;;6.30;94639.00;;;;5056084;28;20753;-65
2023/04/01 03:52:28;;;;;;;0.70;0.70;;;;;6.50;94622.00;;;;5056150;28;20194;-66
2023/04/01 03:54:56;;;;;;;0.60;0.60;;;;;6.60;94619.00;;;;5055882;28;20199;-65
2023/04/01 03:57:23;;;;;;;0.53;0.53;;;;;6.50;94628.00;;;;5055947;28;20229;-65
2023/04/01 03:59:50;;;;;;;1.30;1.27;;;;;6.50;94616.00;;;;5055714;28;20219;-66
2023/04/01 04:02:18;;;;;;;0.70;0.70;;;;;6.50;94622.00;;;;5038075;28;20306;-66
2023/04/01 04:04:46;;;;;;;0.60;0.60;;;;;6.60;94622.00;;;;5055914;28;20591;-66
2023/04/01 04:07:14;;;;;;;0.60;0.60;;;;;6.50;94615.00;;;;5055658;28;20192;-66
2023/04/01 04:09:42;;;;;;;0.67;0.67;;;;;6.60;94620.00;;;;5055391;28;20212;-66
2023/04/01 04:12:09;;;;;;;6.80;0.77;;;;;6.40;94620.00;;;;5037702;28;20184;-66
2023/04/01 04:14:37;;;;;;;0.60;0.60;;;;;6.50;94617.00;;;;5056004;28;20246;-66
2023/04/01 04:17:05;;;;;;;0.60;0.60;;;;;6.30;94628.00;;;;5055694;28;20206;-66
2023/04/01 04:19:34;;;;;;;1.27;1.27;;;;;6.50;94640.00;;;;5055301;28;20188;-66
2023/04/01 04:22:01;;;;;;;0.50;0.50;;;;;6.50;94624.00;;;;5037382;28;20796;-66
2023/04/01 04:24:30;;;;;;;0.70;0.70;;;;;6.40;94629.00;;;;5055799;28;20218;-66
2023/04/01 04:26:58;;;;;;;0.50;0.50;;;;;6.40;94632.00;;;;5055281;28;20196;-65
2023/04/01 04:29:25;;;;;;;0.50;0.50;;;;;6.50;94635.00;;;;5055656;28;20557;-66
2023/04/01 04:31:52;;;;;;;0.60;0.60;;;;;6.40;94633.00;;;;5037256;28;20673;-65
2023/04/01 04:34:21;;;;;;;1.13;0.80;;;;;6.40;94629.00;;;;5055124;28;20203;-65
2023/04/01 04:36:48;;;;;;;0.60;0.60;;;;;6.60;94628.00;;;;5055053;28;20203;-65
2023/04/01 04:39:16;;;;;;;0.60;0.60;;;;;6.40;94619.00;;;;5055554;28;20199;-65
2023/04/01 04:41:45;;;;;;;0.50;0.50;;;;;6.50;94617.00;;;;5055086;28;20575;-66
2023/04/01 04:44:12;;;;;;;0.43;0.43;;;;;6.50;94611.00;;;;5055159;28;20192;-66
2023/04/01 04:46:40;;;;;;;1.07;1.07;;;;;6.60;94623.00;;;;5054889;28;20207;-66
2023/04/01 04:49:08;;;;;;;0.60;0.60;;;;;6.60;94620.00;;;;5055064;28;20231;-65
2023/04/01 04:51:35;;;;;;;0.60;0.60;;;;;6.70;94615.00;;;;5054941;28;20212;-66
2023/04/01 04:54:03;;;;;;;0.63;0.63;;;;;6.60;94616.00;;;;5054650;28;20215;-65
2023/04/01 04:56:31;;;;;;;0.60;0.60;;;;;6.60;94603.00;;;;5054926;28;20207;-66
2023/04/01 04:59:00;;;;;;;0.60;0.60;;;;;6.70;94607.00;;;;5054575;28;20285;-65
2023/04/01 05:01:27;;;;;;;0.53;0.53;;;;;6.50;94611.00;;;;5054483;28;20725;-66
2023/04/01 05:03:55;;;;;;;0.50;0.50;;;;;6.60;94603.00;;;;5054481;28;20212;-66
2023/04/01 05:06:22;;;;;;;0.50;0.50;;;;;6.80;94602.00;;;;5054848;28;20250;-66
2023/04/01 05:08:50;;;;;;;0.60;0.60;;;;;6.90;94609.00;;;;5036045;28;20194;-66
2023/04/01 05:11:18;;;;;;;0.60;0.60;;;;;6.70;94601.00;;;;5068198;22;20231;-59
2023/04/01 05:13:47;;;;;;;0.60;0.60;;;;;6.70;94605.00;;;;5054625;28;20192;-58
2023/04/01 05:16:18;;;;;;;0.60;0.60;;;;;6.70;94608.00;;;;5054343;28;20244;-59
2023/04/01 05:18:45;;;;;;;0.50;0.50;;;;;6.80;94608.00;;;;5054824;28;20623;-59
2023/04/01 05:21:14;;;;;;;0.60;0.60;;;;;6.70;94619.00;;;;5054584;28;20216;-58
2023/04/01 05:23:42;;;;;;;0.60;0.60;;;;;6.70;94603.00;;;;5054483;28;20219;-58
2023/04/01 05:26:12;;;;;;;0.60;0.60;;;;;6.80;94592.00;;;;5054737;28;20214;-59
2023/04/01 05:28:39;;;;;;;0.53;0.53;;;;;6.60;94586.00;;;;5054753;28;20251;-58
2023/04/01 05:31:07;;;;;;;1.73;0.90;;;;;6.70;94576.00;;;;5054162;28;20216;-59
2023/04/01 05:33:36;;;;;;;0.60;0.60;;;;;6.80;94576.00;;;;5054226;28;20187;-59
2023/04/01 05:36:17;;;;;;;0.50;0.50;;;;;6.80;94571.00;;;;5053962;28;20199;-59
2023/04/01 05:38:45;;;;;;;0.67;0.67;;;;;6.60;94572.00;;;;5054134;28;20269;-58
2023/04/01 05:41:13;;;;;;;1.03;1.03;;;;;6.60;94589.00;;;;5053843;28;20211;-60
2023/04/01 05:43:41;;;;;;;0.60;0.60;;;;;6.60;94585.00;;;;5053780;28;20237;-59
2023/04/01 05:46:09;;;;;;;0.60;0.60;;;;;6.50;94575.00;;;;5054358;28;20192;-60
2023/04/01 05:48:37;;;;;;;0.50;0.50;;;;;6.70;94567.00;;;;5053945;28;20202;-60
2023/04/01 05:51:05;;;;;;;0.63;0.63;;;;;6.70;94560.00;;;;5053959;28;20227;-59
2023/04/01 05:53:33;;;;;;;1.80;1.10;;;;;6.70;94573.00;;;;5053916;28;20287;-60
2023/04/01 05:56:04;;;;;;;0.60;0.60;;;;;6.80;94572.00;;;;5052350;28;20290;-59
2023/04/01 05:58:31;;;;;;;0.60;0.60;;;;;6.70;94562.00;;;;5052331;28;20199;-57
2023/04/01 06:01:03;;;;;;;0.60;0.60;;;;;6.70;94607.00;;;;5053854;28;20227;-58
2023/04/01 06:03:30;;;;;;;0.60;0.60;;;;;6.70;94573.00;;;;5053487;28;20250;-58
2023/04/01 06:06:00;;;;;;;0.60;0.60;;;;;6.60;94569.00;;;;5053537;28;20218;-58
2023/04/01 06:08:28;;;;;;;0.50;0.50;;;;;6.60;94572.00;;;;5052285;28;20183;-58
2023/04/01 06:11:14;;;;;;;0.50;0.50;;;;;6.40;94590.00;;;;5054161;28;20258;-58
2023/04/01 06:14:08;;;;;;;1.00;1.00;;;;;6.60;94578.00;;;;5054592;28;20611;-59
2023/04/01 06:16:48;;;;;;;0.40;0.40;;;;;6.70;94570.00;;;;5053535;28;20572;-58
2023/04/01 06:19:30;;;;;;;1.00;1.00;;;;;6.60;94580.00;;;;5052614;28;20197;-58
2023/04/01 06:22:30;;;;;;;0.60;0.60;;;;;6.40;94576.00;;;;5053149;28;20253;-58
2023/04/01 06:25:31;;;;;;;0.50;0.50;;;;;6.30;94579.00;;;;5051963;28;20684;-58
2023/04/01 06:28:23;;;;;;;0.57;0.57;;;;;6.30;94588.00;;;;5053424;28;20188;-58
2023/04/01 06:31:00;;;;;;;0.60;0.60;;;;;6.20;94581.00;;;;5053019;28;20212;-58
2023/04/01 06:33:47;;;;;;;0.60;0.60;;;;;6.30;94600.00;;;;5053148;28;20603;-58
2023/04/01 06:36:28;;;;;;;0.60;0.60;;;;;6.20;94584.00;;;;5053416;28;20180;-58
2023/04/01 06:39:13;;;;;;;0.60;0.60;;;;;6.30;94578.00;;;;5053345;28;20191;-59
2023/04/01 06:41:59;;;;;;;0.60;0.60;;;;;6.20;94582.00;;;;5053155;28;20254;-59
2023/04/01 06:44:36;;;;;;;0.60;0.60;;;;;6.20;94581.00;;;;5053451;28;20199;-59
2023/04/01 06:47:22;;;;;;;0.50;0.50;;;;;6.20;94583.00;;;;5053157;28;20191;-60
2023/04/01 06:49:56;;;;;;;0.70;0.70;;;;;6.10;94600.00;;;;5053101;28;20261;-59
2023/04/01 06:52:33;;;;;;;0.50;0.50;;;;;6.30;94589.00;;;;5053208;28;20218;-59
2023/04/01 06:55:13;;;;;;;0.70;0.70;;;;;6.20;94591.00;;;;5053094;28;20234;-58
2023/04/01 06:57:45;;;;;;;0.87;0.87;;;;;6.30;94584.00;;;;5053129;28;20554;-59
2023/04/01 07:00:19;;;;;;;0.60;0.60;;;;;6.30;94586.00;;;;5053170;28;20190;-58
2023/04/01 07:02:53;;;;;;;0.60;0.60;;;;;6.40;94583.00;;;;5052971;28;20216;-58
2023/04/01 07:05:21;;;;;;;0.70;0.70;;;;;6.40;94584.00;;;;5052815;28;20694;-59
2023/04/01 07:07:51;;;;;;;0.60;0.60;;;;;6.50;94578.00;;;;5052821;28;20199;-59
2023/04/01 07:10:33;;;;;;;1.37;1.13;;;;;6.50;94586.00;;;;5053089;28;20187;-59
2023/04/01 07:13:05;;;;;;;0.50;0.50;;;;;6.60;94579.00;;;;5052873;28;20195;-59
2023/04/01 07:15:38;;;;;;;0.50;0.50;;;;;6.50;94587.00;;;;5053171;28;20184;-59
2023/04/01 07:18:12;;;;;;;0.63;0.63;;;;;6.30;94591.00;;;;5052964;28;20191;-58
2023/04/01 07:20:40;;;;;;;0.60;0.60;;;;;6.30;94585.00;;;;5052951;28;20182;-60
2023/04/01 07:23:12;;;;;;;0.57;0.57;;;;;6.60;94594.00;;;;5052460;28;20216;-59
2023/04/01 07:25:45;;;;;;;0.60;0.60;;;;;6.80;94583.00;;;;5052742;28;20250;-59
2023/04/01 07:28:16;;;;;;;0.70;0.70;;;;;6.80;94590.00;;;;5052853;28;20199;-59
2023/04/01 07:30:53;;;;;;;0.70;0.70;;;;;6.70;94599.00;;;;5053929;28;20641;-59
2023/04/01 07:33:26;;;;;;;0.70;0.70;;;;;6.80;94595.00;;;;5055110;28;20191;-59
2023/04/01 07:36:00;;;;;;;0.60;0.60;;;;;6.80;94591.00;;;;5056329;28;20196;-59
2023/04/01 07:38:40;;;;;;;0.57;0.57;;;;;6.80;94597.00;;;;5056480;28;20219;-59
2023/04/01 07:41:18;;;;;;;0.60;0.60;;;;;6.90;94617.00;;;;5056277;28;20218;-58
2023/04/01 07:44:04;;;;;;;0.67;0.67;;;;;6.90;94601.00;;;;5056368;28;20209;-58
2023/04/01 07:46:50;;;;;;;0.63;0.63;;;;;7.10;94603.00;;;;5056356;28;20525;-58
2023/04/01 07:49:22;;;;;;;0.57;0.57;;;;;7.20;94609.00;;;;5054850;28;20215;-59
2023/04/01 07:51:58;;;;;;;0.50;0.50;;;;;7.20;94610.00;;;;5055980;28;20226;-59
2023/04/01 07:54:32;;;;;;;0.70;0.70;;;;;7.20;94605.00;;;;5055501;28;20642;-59
2023/04/01 07:57:05;;;;;;;0.60;0.60;;;;;7.10;94619.00;;;;5056157;28;20653;-58
2023/04/01 07:59:41;;;;;;;0.60;0.60;;;;;6.80;94623.00;;;;5055789;28;20268;-58
2023/04/01 08:02:19;;;;;;;0.60;0.60;;;;;7.00;94622.00;;;;5055811;28;20211;-58
2023/04/01 08:05:00;;;;;;;0.57;0.57;;;;;6.80;94615.00;;;;5055900;28;20265;-58
2023/04/01 08:07:35;;;;;;;0.70;0.70;;;;;6.80;94620.00;;;;5055830;28;20185;-59
2023/04/01 08:10:12;;;;;;;0.60;0.60;;;;;6.80;94619.00;;;;5055603;28;20197;-58
2023/04/01 08:12:53;;;;;;;0.50;0.50;;;;;6.90;94621.00;;;;5055563;28;20727;-59
2023/04/01 08:15:27;;;;;;;0.60;0.60;;;;;7.10;94622.00;;;;5055382;28;20586;-59
2023/04/01 08:18:12;;;;;;;0.60;0.60;;;;;6.90;94625.00;;;;5055371;28;20254;-59
2023/04/01 08:20:47;;;;;;;0.60;0.60;;;;;6.70;94627.00;;;;5055576;28;20183;-59
2023/04/01 08:23:18;;;;;;;0.50;0.50;;;;;6.80;94632.00;;;;5055150;28;20221;-59
2023/04/01 08:25:51;;;;;;;0.60;0.60;;;;;6.80;94630.00;;;;5055370;28;20180;-59
2023/04/01 08:28:25;;;;;;;0.40;0.40;;;;;6.90;94636.00;;;;5055474;28;20191;-59
2023/04/01 08:30:56;;;;;;;0.60;0.60;;;;;6.80;94640.00;;;;5055385;28;20211;-59
2023/04/01 08:33:27;;;;;;;0.60;0.60;;;;;6.70;94638.00;;;;5055356;28;20213;-59
2023/04/01 08:35:58;;;;;;;0.60;0.60;;;;;6.70;94629.00;;;;5055406;28;20191;-59
2023/04/01 08:38:31;;;;;;;0.57;0.57;;;;;6.50;94638.00;;;;5055180;28;20191;-59
2023/04/01 08:41:28;;;;;;;0.60;0.60;;;;;6.70;94646.00;;;;5054947;28;20218;-59
2023/04/01 08:44:33;;;;;;;0.60;0.60;;;;;6.70;94635.00;;;;5049790;28;20776;-59
2023/04/01 08:47:25;;;;;;;0.60;0.60;;;;;6.60;94637.00;;;;5055162;28;20199;-58
2023/04/01 08:50:37;;;;;;;0.50;0.50;;;;;6.80;94641.00;;;;5031770;28;20215;-59
2023/04/01 08:53:13;;;;;;;0.50;0.50;;;;;6.90;94626.00;;;;5055200;28;20560;-60
2023/04/01 08:55:52;;;;;;;0.70;0.70;;;;;7.00;94632.00;;;;5055380;28;20194;-60
2023/04/01 08:58:52;;;;;;;0.60;0.60;;;;;7.20;94634.00;;;;5054679;28;20187;-60
2023/04/01 09:01:37;;;;;;;0.60;0.60;;;;;7.10;94631.00;;;;5052228;28;20232;-59
2023/04/01 09:04:26;;;;;;;0.60;0.60;;;;;7.20;94654.00;;;;5054713;28;20261;-58
2023/04/01 09:07:06;;;;;;;0.57;0.57;;;;;7.40;94646.00;;;;5053274;28;20203;-58
2023/04/01 09:10:13;;;;;;;0.60;0.60;;;;;7.40;94647.00;;;;5054444;28;20198;-59
2023/04/01 09:13:00;;;;;;;0.70;0.70;;;;;7.40;94640.00;;;;5054344;28;20273;-60
2023/04/01 09:15:59;;;;;;;0.50;0.50;;;;;7.70;94647.00;;;;5054632;28;20546;-59
2023/04/01 09:19:03;;;;;;;0.67;0.67;;;;;7.50;94655.00;;;;5054461;28;20204;-60
2023/04/01 09:21:52;;;;;;;0.60;0.60;;;;;7.70;94649.00;;;;5054870;28;20609;-58
2023/04/01 09:24:36;;;;;;;0.60;0.60;;;;;7.20;94655.00;;;;5054593;28;20250;-58
2023/04/01 09:27:11;;;;;;;0.60;0.60;;;;;7.10;94666.00;;;;5054142;28;20259;-59
2023/04/01 09:30:02;;;;;;;0.90;0.90;;;;;7.10;94643.00;;;;5054071;28;20183;-58
2023/04/01 09:32:47;;;;;;;0.60;0.60;;;;;7.30;94668.00;;;;5051398;28;20282;-58
2023/04/01 09:35:25;;;;;;;0.50;0.50;;;;;7.20;94657.00;;;;5052704;28;20193;-58
2023/04/01 09:38:11;;;;;;;0.60;0.60;;;;;7.20;94652.00;;;;5054015;28;20190;-59
2023/04/01 09:40:47;;;;;;;0.80;0.80;;;;;7.00;94664.00;;;;5052599;28;20188;-59
2023/04/01 09:43:29;;;;;;;0.60;0.60;;;;;7.00;94657.00;;;;5054005;28;20186;-58
2023/04/01 09:46:17;;;;;;;0.90;0.90;;;;;7.00;94671.00;;;;5054228;28;20642;-59
2023/04/01 09:49:34;;;;;;;0.60;0.60;;;;;7.10;94673.00;;;;5053976;28;20195;-58
2023/04/01 09:52:15;;;;;;;0.50;0.50;;;;;7.10;94671.00;;;;4992363;28;20225;-58
2023/04/01 09:55:00;;;;;;;0.50;0.50;;;;;7.00;94677.00;;;;4992313;28;20205;-58
2023/04/01 09:58:09;;;;;;;0.60;0.60;;;;;7.00;94680.00;;;;5040470;28;20679;-58
2023/04/01 10:01:16;;;;;;;0.50;0.50;;;;;7.20;94664.00;;;;5052594;28;20612;-58
2023/04/01 10:04:09;;;;;;;0.70;0.70;;;;;7.30;94663.00;;;;5053583;28;20204;-58
2023/04/01 10:07:10;;;;;;;0.60;0.60;;;;;7.70;94668.00;;;;5053595;28;20782;-58
2023/04/01 10:10:24;;;;;;;0.60;0.60;;;;;7.90;94672.00;;;;5040872;28;20218;-58
2023/04/01 10:13:30;;;;;;;0.80;0.80;;;;;7.40;94674.00;;;;5017228;28;20243;-59
2023/04/01 10:16:49;;;;;;;0.70;0.70;;;;;7.70;94666.00;;;;5053578;28;20184;-59
2023/04/01 10:19:56;;;;;;;0.50;0.50;;;;;7.30;94663.00;;;;5023198;28;20573;-59
2023/04/01 10:23:03;;;;;;;0.60;0.60;;;;;7.60;94658.00;;;;5051913;28;20230;-59
2023/04/01 10:26:00;;;;;;;0.50;0.50;;;;;7.50;94683.00;;;;5053225;28;20204;-59
2023/04/01 10:29:09;;;;;;;0.60;0.60;;;;;7.90;94672.00;;;;4992020;28;20205;-58
2023/04/01 10:32:26;;;;;;;0.50;0.50;;;;;7.90;94677.00;;;;5017259;28;20231;-58
2023/04/01 10:35:23;;;;;;;0.60;0.60;;;;;8.20;94664.00;;;;5053166;28;20198;-59
2023/04/01 10:38:26;;;;;;;0.60;0.60;;;;;8.10;94673.00;;;;5053446;28;20180;-59
2023/04/01 10:41:30;;;;;;;0.50;0.50;;;;;8.10;94676.00;;;;5052956;28;20207;-59
2023/04/01 10:44:42;;;;;;;0.53;0.53;;;;;7.90;94674.00;;;;5011566;28;20572;-58
2023/04/01 10:47:40;;;;;;;0.50;0.50;;;;;8.00;94673.00;;;;4991520;28;20208;-58
2023/04/01 10:50:35;;;;;;;0.50;0.50;;;;;8.20;94671.00;;;;5038525;28;20678;-58
2023/04/01 10:53:40;;;;;;;0.50;0.50;;;;;8.10;94670.00;;;;5052972;28;20180;-58
2023/04/01 10:56:33;;;;;;;0.60;0.60;;;;;7.80;94683.00;;;;5052683;28;20269;-57
2023/04/01 10:59:28;;;;;;;0.60;0.60;;;;;8.10;94677.00;;;;5052865;28;20180;-58
2023/04/01 11:02:27;;;;;;;0.60;0.60;;;;;8.00;94691.00;;;;5051632;28;20215;-57
2023/04/01 11:05:34;;;;;;;0.50;0.50;;;;;8.30;94665.00;;;;5037124;28;20227;-58
2023/04/01 11:08:36;;;;;;;0.53;0.53;;;;;8.10;94669.00;;;;5055354;28;20667;-59
2023/04/01 11:11:41;;;;;;;0.50;0.50;;;;;8.50;94649.00;;;;5055564;28;20223;-59
2023/04/01 11:14:38;;;;;;;0.50;0.50;;;;;8.20;94675.00;;;;5056829;28;20184;-58
2023/04/01 11:17:28;;;;;;;0.60;0.60;;;;;8.70;94665.00;;;;5056443;28;20198;-58
2023/04/01 11:20:34;;;;;;;0.53;0.53;;;;;8.90;94660.00;;;;5055166;28;20266;-58
2023/04/01 11:23:34;;;;;;;0.60;0.60;;;;;9.10;94664.00;;;;5056474;28;20199;-59
2023/04/01 11:26:14;;;;;;;0.50;0.50;;;;;8.80;94663.00;;;;5040284;28;20208;-58
2023/04/01 11:29:14;;;;;;;0.50;0.50;;;;;9.40;94674.00;;;;5056656;28;20186;-58
2023/04/01 11:31:51;;;;;;;0.50;0.50;;;;;8.60;94674.00;;;;5022715;28;20581;-58
2023/04/01 11:34:38;;;;;;;0.77;0.77;;;;;8.80;94675.00;;;;5056559;28;20512;-58
2023/04/01 11:37:19;;;;;;;0.60;0.60;;;;;8.90;94698.00;;;;5056676;28;20185;-59
2023/04/01 11:39:59;;;;;;;0.50;0.50;;;;;8.80;94678.00;;;;5056214;28;20191;-59
2023/04/01 11:42:34;;;;;;;0.50;0.50;;;;;8.60;94698.00;;;;5056065;28;20215;-53
2023/04/01 11:45:14;;;;;;;0.50;0.50;;;;;8.70;94711.00;;;;5041091;28;20212;-54
2023/04/01 11:48:01;;;;;;;0.50;0.50;;;;;8.60;94682.00;;;;5035589;28;20192;-53
2023/04/01 11:50:45;;;;;;;0.50;0.50;;;;;8.70;94682.00;;;;5036237;28;20188;-53
2023/04/01 11:53:24;;;;;;;0.60;0.60;;;;;9.10;94673.00;;;;5035930;28;20193;-53
2023/04/01 11:56:04;;;;;;;0.50;0.50;;;;;8.90;94706.00;;;;5036169;28;20628;-53
2023/04/01 11:58:59;;;;;;;0.50;0.50;;;;;8.70;94697.00;;;;5036101;28;20181;-53
2023/04/01 12:01:45;;;;;;;0.50;0.50;;;;;8.40;94717.00;;;;5035563;28;20213;-53
2023/04/01 12:04:39;;;;;;;0.50;0.50;;;;;8.10;94731.00;;;;5036159;28;20203;-53
2023/04/01 12:07:20;;;;;;;0.57;0.57;;;;;7.80;94741.00;;;;5035641;28;20177;-53
2023/04/01 12:10:03;;;;;;;0.43;0.43;;;;;7.80;94722.00;;;;5035713;28;20192;-53
2023/04/01 12:12:40;;;;;;;0.50;0.50;;;;;7.70;94716.00;;;;5035420;28;20224;-53
2023/04/01 12:15:20;;;;;;;0.50;0.50;;;;;7.90;94716.00;;;;5035284;28;20188;-53
2023/04/01 12:18:04;;;;;;;0.50;0.50;;;;;8.10;94714.00;;;;5034197;28;20181;-53
2023/04/01 12:20:39;;;;;;;0.50;0.50;;;;;8.20;94715.00;;;;5035358;28;20235;-54
2023/04/01 12:23:22;;;;;;;0.50;0.50;;;;;8.40;94723.00;;;;5035610;28;20542;-53
2023/04/01 12:26:16;;;;;;;0.50;0.50;;;;;8.40;94711.00;;;;5035417;28;20201;-53
2023/04/01 12:29:19;;;;;;;0.50;0.50;;;;;9.10;94707.00;;;;5035246;28;20671;-54
2023/04/01 12:31:54;;;;;;;0.50;0.50;;;;;8.80;94711.00;;;;5035506;28;20236;-52
2023/04/01 12:34:57;;;;;;;0.50;0.50;;;;;8.70;94728.00;;;;5035198;28;20188;-53
2023/04/01 12:37:35;;;;;;;0.60;0.60;;;;;8.80;94718.00;;;;5035014;28;20176;-53
2023/04/01 12:40:21;;;;;;;0.60;0.60;;;;;8.90;94719.00;;;;5035271;28;20185;-53
2023/04/01 12:43:02;;;;;;;0.50;0.50;;;;;8.50;94727.00;;;;5035059;28;20212;-53
2023/04/01 12:45:32;;;;;;;0.60;0.60;;;;;9.00;94725.00;;;;5035137;28;20212;-53
2023/04/01 12:48:26;;;;;;;0.60;0.60;;;;;8.90;94738.00;;;;5033556;28;20287;-56
2023/04/01 12:51:26;;;;;;;0.87;0.87;;;;;8.90;94724.00;;;;5033417;28;20238;-53
2023/04/01 12:54:29;;;;;;;0.50;0.50;;;;;9.20;94725.00;;;;5034779;28;20235;-53
2023/04/01 12:57:13;;;;;;;0.60;0.60;;;;;9.00;94734.00;;;;5011532;28;20216;-54
2023/04/01 13:00:11;;;;;;;0.50;0.50;;;;;8.80;94728.00;;;;5035004;28;20246;-53
2023/04/01 13:02:50;;;;;;;0.50;0.50;;;;;8.60;94749.00;;;;5034782;28;20216;-53
2023/04/01 13:05:46;;;;;;;0.50;0.50;;;;;8.70;94744.00;;;;5035047;28;20205;-53
2023/04/01 13:08:36;;;;;;;0.50;0.50;;;;;8.70;94752.00;;;;5035040;28;20751;-54
2023/04/01 13:11:16;;;;;;;0.50;0.50;;;;;8.60;94759.00;;;;5034259;28;20294;-53
2023/04/01 13:14:32;;;;;;;0.60;0.60;;;;;8.50;94769.00;;;;5033070;28;20208;-53
2023/04/01 13:17:14;;;;;;;0.60;0.60;;;;;8.30;94752.00;;;;5025104;28;20212;-53
2023/04/01 13:19:49;;;;;;;0.60;0.60;;;;;8.50;94740.00;;;;5034572;28;20181;-54
2023/04/01 13:22:24;;;;;;;0.60;0.60;;;;;8.80;94743.00;;;;5034073;28;20212;-54
2023/04/01 13:24:58;;;;;;;0.40;0.40;;;;;9.00;94766.00;;;;5034192;28;20204;-54